createdAt,value
2018-05-08T00:02:11.145Z,6.10
2018-05-08T00:04:38.623Z,6.03
2018-05-08T00:07:06.091Z,5.85
2018-05-08T00:09:33.713Z,5.62
2018-05-08T00:12:01.174Z,6.20
2018-05-08T00:14:28.683Z,5.37
2018-05-08T00:16:56.138Z,6.18
2018-05-08T00:19:23.614Z,5.80
2018-05-08T00:21:51.143Z,6.18
2018-05-08T00:24:18.609Z,6.10
2018-05-08T00:26:46.095Z,6.05
2018-05-08T00:29:13.624Z,7.03
2018-05-08T00:31:41.245Z,6.00
2018-05-08T00:34:08.735Z,5.82
2018-05-08T00:36:36.293Z,5.50
2018-05-08T00:39:03.865Z,6.20
2018-05-08T00:41:31.551Z,5.95
2018-05-08T00:43:59.963Z,5.47
2018-05-08T00:46:28.280Z,5.82
2018-05-08T00:48:55.824Z,6.72
2018-05-08T00:51:23.403Z,6.22
2018-05-08T00:53:50.954Z,6.85
2018-05-08T00:56:18.477Z,5.78
2018-05-08T00:58:45.978Z,5.82
2018-05-08T01:01:13.453Z,5.75
2018-05-08T01:03:40.913Z,6.22
2018-05-08T01:06:09.141Z,6.57
2018-05-08T01:08:36.622Z,7.00
2018-05-08T01:11:04.117Z,6.70
2018-05-08T01:13:31.568Z,6.62
2018-05-08T01:15:59.038Z,7.07
2018-05-08T01:18:26.484Z,6.30
2018-05-08T01:20:54.725Z,7.10
2018-05-08T01:23:22.193Z,6.95
2018-05-08T01:25:49.701Z,6.65
2018-05-08T01:28:17.489Z,6.75
2018-05-08T01:30:45.398Z,7.85
2018-05-08T01:33:18.594Z,7.55
2018-05-08T01:35:48.054Z,6.05
2018-05-08T01:38:15.834Z,7.05
2018-05-08T01:40:43.429Z,7.15
2018-05-08T01:43:11.020Z,6.28
2018-05-08T01:45:38.551Z,7.22
2018-05-08T01:48:06.281Z,7.15
2018-05-08T01:50:33.895Z,7.20
2018-05-08T01:53:03.129Z,6.05
2018-05-08T01:55:31.564Z,7.72
2018-05-08T01:58:04.058Z,7.43
2018-05-08T02:00:37.746Z,6.97
2018-05-08T02:03:08.445Z,6.45
2018-05-08T02:05:39.822Z,6.80
2018-05-08T02:08:12.297Z,7.00
2018-05-08T02:10:44.823Z,7.15
2018-05-08T02:15:54.750Z,6.72
2018-05-08T02:18:24.231Z,6.70
2018-05-08T02:20:55.552Z,7.05
2018-05-08T02:28:58.388Z,6.18
2018-05-08T02:31:30.356Z,7.25
2018-05-08T02:33:57.864Z,7.25
2018-05-08T02:36:25.361Z,7.62
2018-05-08T02:38:54.072Z,7.22
2018-05-08T02:41:27.128Z,6.78
2018-05-08T02:43:55.591Z,7.15
2018-05-08T02:46:32.075Z,7.55
2018-05-08T03:06:40.889Z,7.22
2018-05-08T03:09:09.147Z,7.28
2018-05-08T03:11:41.640Z,7.95
2018-05-08T03:14:12.131Z,7.35
2018-05-08T03:16:44.027Z,7.43
2018-05-08T03:19:13.437Z,7.72
2018-05-08T03:21:45.872Z,8.15
2018-05-08T03:24:15.251Z,8.25
2018-05-08T03:26:48.531Z,8.20
2018-05-08T03:29:20.094Z,7.97
2018-05-08T03:31:47.773Z,7.50
2018-05-08T03:34:16.433Z,9.40
2018-05-08T04:09:35.940Z,7.62
2018-05-08T04:12:16.432Z,8.32
2018-05-08T04:14:44.203Z,7.60
2018-05-08T04:17:16.553Z,8.27
2018-05-08T04:19:47.155Z,8.20
2018-05-08T05:01:50.882Z,8.20
2018-05-08T05:04:18.439Z,7.80
2018-05-08T05:06:46.695Z,8.35
2018-05-08T05:09:14.208Z,8.13
2018-05-08T05:11:42.433Z,8.70
2018-05-08T05:14:10.089Z,8.25
2018-05-08T05:16:37.595Z,7.85
2018-05-08T05:21:46.061Z,7.00
2018-05-08T05:24:13.806Z,8.27
2018-05-08T05:26:41.421Z,7.75
2018-05-08T05:29:09.030Z,7.65
2018-05-08T05:31:36.922Z,8.10
2018-05-08T05:34:04.619Z,7.10
2018-05-08T05:36:33.194Z,7.72
2018-05-08T05:39:00.810Z,8.10
2018-05-08T05:41:28.693Z,7.57
2018-05-08T05:43:56.210Z,7.50
2018-05-08T05:46:24.133Z,7.03
2018-05-08T05:48:51.644Z,6.35
2018-05-08T05:51:21.503Z,7.50
2018-05-08T05:53:49.015Z,7.60
2018-05-08T05:56:17.358Z,8.55
2018-05-08T05:58:44.837Z,7.20
2018-05-08T06:01:13.065Z,6.78
2018-05-08T06:03:40.538Z,7.10
2018-05-08T06:06:08.077Z,7.22
2018-05-08T06:08:41.965Z,7.07
2018-05-08T06:11:09.653Z,6.70
2018-05-08T06:13:37.118Z,7.18
2018-05-08T06:16:04.627Z,7.20
2018-05-08T06:18:32.883Z,7.30
2018-05-08T06:21:03.699Z,6.78
2018-05-08T06:27:17.103Z,6.15
2018-05-08T06:29:51.644Z,7.35
2018-05-08T06:32:21.415Z,7.03
2018-05-08T06:34:48.966Z,6.50
2018-05-08T06:37:20.405Z,7.00
2018-05-08T06:39:54.543Z,6.70
2018-05-08T06:42:23.174Z,6.65
2018-05-08T06:44:51.092Z,6.28
2018-05-08T06:47:18.647Z,5.93
2018-05-08T06:49:46.110Z,6.40
2018-05-08T06:52:14.400Z,5.65
2018-05-08T06:54:41.880Z,5.70
2018-05-08T06:57:09.365Z,5.65
2018-05-08T06:59:36.856Z,5.95
2018-05-08T07:02:05.253Z,5.25
2018-05-08T07:04:32.710Z,5.45
2018-05-08T07:07:00.200Z,5.10
2018-05-08T07:09:27.676Z,5.18
2018-05-08T07:11:55.157Z,4.85
2018-05-08T07:14:22.629Z,5.45
2018-05-08T07:16:50.120Z,6.00
2018-05-08T07:19:17.609Z,5.00
2018-05-08T07:21:45.089Z,4.73
2018-05-08T07:24:12.569Z,5.10
2018-05-08T07:26:40.419Z,5.57
2018-05-08T07:29:07.933Z,5.70
2018-05-08T07:31:35.499Z,5.53
2018-05-08T07:34:03.150Z,4.77
2018-05-08T07:36:32.615Z,5.80
2018-05-08T07:39:00.976Z,6.10
2018-05-08T07:41:31.447Z,5.40
2018-05-08T07:44:01.194Z,4.33
2018-05-08T07:46:35.098Z,5.43
2018-05-08T07:49:08.369Z,5.07
2018-05-08T07:51:48.938Z,4.93
2018-05-08T07:54:17.939Z,4.10
2018-05-08T07:57:07.331Z,4.43
2018-05-08T07:59:34.890Z,4.93
2018-05-08T08:04:52.288Z,3.77
2018-05-08T08:07:19.904Z,4.60
2018-05-08T08:09:51.966Z,3.90
2018-05-08T08:12:19.571Z,3.93
2018-05-08T08:14:47.169Z,3.67
2018-05-08T08:17:21.725Z,4.50
2018-05-08T08:19:56.058Z,4.80
2018-05-08T08:22:23.829Z,4.03
2018-05-08T08:24:55.609Z,3.80
2018-05-08T08:27:25.363Z,4.23
2018-05-08T08:29:53.026Z,4.10
2018-05-08T08:32:21.345Z,4.23
2018-05-08T08:35:02.399Z,4.03
2018-05-08T08:37:34.068Z,4.40
2018-05-08T08:40:04.385Z,4.90
2018-05-08T08:42:32.478Z,3.90
2018-05-08T08:45:00.312Z,4.10
2018-05-08T08:47:29.044Z,3.40
2018-05-08T08:49:57.610Z,3.63
2018-05-08T08:52:31.164Z,3.37
2018-05-08T08:54:59.641Z,3.30
2018-05-08T08:57:27.274Z,3.70
2018-05-08T08:59:54.866Z,3.10
2018-05-08T09:02:35.696Z,3.23
2018-05-08T09:05:03.454Z,3.20
2018-05-08T09:07:33.596Z,3.50
2018-05-08T09:10:01.517Z,3.90
2018-05-08T09:12:31.120Z,3.47
2018-05-08T09:15:00.777Z,2.77
2018-05-08T09:17:34.947Z,3.00
2018-05-08T09:20:06.709Z,3.10
2018-05-08T09:25:20.141Z,4.03
2018-05-08T09:27:56.175Z,2.70
2018-05-08T09:31:03.481Z,3.20
2018-05-08T09:33:31.105Z,3.30
2018-05-08T09:36:02.216Z,3.50
2018-05-08T09:38:35.094Z,2.87
2018-05-08T09:41:04.976Z,2.67
2018-05-08T09:46:06.426Z,2.50
2018-05-08T09:48:45.703Z,2.90
2018-05-08T09:51:13.337Z,3.13
2018-05-08T09:59:12.839Z,3.10
2018-05-08T10:04:31.770Z,3.03
2018-05-08T10:09:48.373Z,3.30
2018-05-08T11:30:48.884Z,2.37
2018-05-08T11:33:16.884Z,2.77
2018-05-08T11:35:44.413Z,2.90
2018-05-08T11:38:11.973Z,2.50
2018-05-08T11:40:40.422Z,2.63
2018-05-08T11:43:07.958Z,3.20
2018-05-08T11:45:35.530Z,2.77
2018-05-08T11:48:03.031Z,2.47
2018-05-08T11:50:34.506Z,3.17
2018-05-08T11:53:02.845Z,2.50
2018-05-08T11:55:30.513Z,2.73
2018-05-08T11:57:58.077Z,2.23
2018-05-08T12:00:25.661Z,2.73
2018-05-08T12:02:53.186Z,1.90
2018-05-08T12:05:20.794Z,2.20
2018-05-08T12:07:48.321Z,2.03
2018-05-08T12:10:15.860Z,2.80
2018-05-08T12:12:43.381Z,2.40
2018-05-08T12:15:10.890Z,2.43
2018-05-08T12:17:38.407Z,2.67
2018-05-08T12:20:05.917Z,2.70
2018-05-08T12:22:33.430Z,1.80
2018-05-08T12:25:00.922Z,2.33
2018-05-08T12:27:28.405Z,2.30
2018-05-08T12:29:56.628Z,2.60
2018-05-08T12:32:24.198Z,3.00
2018-05-08T12:34:51.784Z,2.70
2018-05-08T12:37:19.266Z,2.63
2018-05-08T12:39:47.551Z,2.40
2018-05-08T12:42:15.043Z,2.77
2018-05-08T12:44:42.549Z,3.03
2018-05-08T12:47:10.823Z,2.00
2018-05-08T12:49:39.073Z,2.43
2018-05-08T12:52:06.575Z,2.40
2018-05-08T12:54:34.125Z,2.73
2018-05-08T12:57:01.623Z,2.50
2018-05-08T12:59:29.098Z,3.20
2018-05-08T13:01:56.848Z,2.53
2018-05-08T13:04:24.338Z,2.33
2018-05-08T13:06:52.009Z,2.70
2018-05-08T13:09:19.582Z,2.43
2018-05-08T13:11:47.146Z,2.50
2018-05-08T13:14:15.459Z,1.87
2018-05-08T13:16:42.949Z,2.57
2018-05-08T13:19:10.453Z,1.90
2018-05-08T13:21:37.945Z,1.90
2018-05-08T13:24:05.503Z,2.10
2018-05-08T13:26:32.917Z,1.80
2018-05-08T13:29:00.433Z,2.00
2018-05-08T13:31:27.964Z,1.90
2018-05-08T13:33:55.594Z,1.97
2018-05-08T13:36:23.081Z,2.40
2018-05-08T13:38:50.564Z,2.07
2018-05-08T13:41:18.096Z,2.53
2018-05-08T13:43:45.569Z,2.43
2018-05-08T13:46:13.071Z,2.20
2018-05-08T13:48:41.296Z,2.50
2018-05-08T13:51:08.846Z,1.83
2018-05-08T13:53:36.347Z,2.00
2018-05-08T13:56:03.850Z,2.00
2018-05-08T13:58:31.364Z,2.33
2018-05-08T14:00:58.953Z,2.43
2018-05-08T14:03:26.398Z,1.93
2018-05-08T14:05:53.906Z,2.53
2018-05-08T14:08:21.409Z,2.33
2018-05-08T14:10:48.879Z,1.80
2018-05-08T14:13:16.368Z,2.27
2018-05-08T14:15:43.891Z,2.07
2018-05-08T14:18:11.397Z,2.40
2018-05-08T14:20:38.887Z,1.63
2018-05-08T14:23:06.399Z,2.37
2018-05-08T14:25:33.912Z,2.20
2018-05-08T14:28:02.183Z,2.10
2018-05-08T14:30:30.464Z,2.13
2018-05-08T14:32:58.815Z,2.07
2018-05-08T14:35:26.395Z,2.23
2018-05-08T14:37:53.908Z,2.83
2018-05-08T14:40:21.413Z,2.10
2018-05-08T14:42:49.086Z,2.10
2018-05-08T14:45:16.550Z,2.47
2018-05-08T14:47:44.131Z,2.50
2018-05-08T14:50:11.619Z,2.37
2018-05-08T14:52:39.098Z,2.50
2018-05-08T14:55:06.634Z,2.70
2018-05-08T14:57:34.304Z,2.87
2018-05-08T15:00:01.929Z,2.03
2018-05-08T15:02:29.661Z,2.63
2018-05-08T15:04:57.175Z,2.60
2018-05-08T15:07:24.661Z,2.47
2018-05-08T15:09:54.083Z,2.57
2018-05-08T15:12:21.604Z,2.43
2018-05-08T15:14:49.132Z,2.07
2018-05-08T15:17:16.638Z,2.20
2018-05-08T15:19:44.172Z,2.00
2018-05-08T15:22:11.786Z,2.50
2018-05-08T15:24:39.323Z,2.33
2018-05-08T15:27:07.092Z,2.47
2018-05-08T15:29:34.655Z,2.20
2018-05-08T15:32:02.157Z,2.40
2018-05-08T15:34:29.649Z,2.80
2018-05-08T15:36:57.393Z,2.17
2018-05-08T15:39:24.933Z,2.67
2018-05-08T15:41:52.431Z,2.30
2018-05-08T15:44:19.907Z,2.97
2018-05-08T15:46:47.374Z,2.10
2018-05-08T15:49:14.968Z,2.40
2018-05-08T15:51:43.238Z,2.60
2018-05-08T15:54:10.758Z,2.80
2018-05-08T15:56:38.228Z,2.30
2018-05-08T15:59:05.851Z,3.07
2018-05-08T16:01:33.414Z,2.40
2018-05-08T16:04:01.015Z,2.57
2018-05-08T16:06:28.656Z,2.30
2018-05-08T16:08:56.324Z,2.60
2018-05-08T16:11:24.168Z,2.87
2018-05-08T16:13:54.118Z,2.30
2018-05-08T16:16:23.549Z,2.50
2018-05-08T16:18:54.131Z,2.50
2018-05-08T16:21:21.737Z,3.17
2018-05-08T16:23:49.245Z,2.40
2018-05-08T16:26:16.928Z,2.00
2018-05-08T16:28:44.528Z,2.60
2018-05-08T16:31:12.073Z,2.93
2018-05-08T16:33:39.632Z,1.90
2018-05-08T16:36:07.315Z,2.63
2018-05-08T16:38:34.878Z,2.33
2018-05-08T16:41:02.512Z,2.50
2018-05-08T16:43:30.150Z,2.43
2018-05-08T16:45:57.836Z,3.00
2018-05-08T16:48:25.352Z,2.40
2018-05-08T16:50:52.973Z,2.57
2018-05-08T16:53:20.501Z,2.53
2018-05-08T16:55:48.066Z,2.70
2018-05-08T16:58:15.752Z,2.30
2018-05-08T17:00:43.253Z,2.63
2018-05-08T17:03:11.635Z,2.63
2018-05-08T17:05:39.153Z,3.00
2018-05-08T17:08:06.638Z,2.87
2018-05-08T17:10:34.246Z,2.70
2018-05-08T17:13:02.812Z,1.93
2018-05-08T17:15:30.858Z,2.90
2018-05-08T17:17:58.510Z,2.40
2018-05-08T17:20:26.795Z,2.30
2018-05-08T17:22:54.400Z,2.50
2018-05-08T17:25:21.950Z,2.90
2018-05-08T17:27:49.460Z,2.27
2018-05-08T17:30:17.266Z,2.07
2018-05-08T17:32:44.901Z,2.00
2018-05-08T17:35:12.657Z,2.00
2018-05-08T17:37:42.390Z,2.10
2018-05-08T17:40:09.970Z,2.87
2018-05-08T17:42:37.437Z,2.43
2018-05-08T17:45:04.940Z,2.80
2018-05-08T17:47:32.490Z,2.00
2018-05-08T17:50:00.001Z,3.13
2018-05-08T17:52:27.506Z,2.43
2018-05-08T17:54:54.986Z,2.90
2018-05-08T17:57:22.573Z,3.07
2018-05-08T17:59:49.990Z,2.37
2018-05-08T18:02:18.258Z,2.67
2018-05-08T18:04:45.866Z,2.83
2018-05-08T18:07:13.390Z,2.87
2018-05-08T18:09:40.967Z,2.80
2018-05-08T18:12:08.783Z,2.57
2018-05-08T18:14:36.255Z,3.07
2018-05-08T18:17:03.716Z,3.40
2018-05-08T18:19:31.330Z,3.30
2018-05-08T18:21:58.856Z,2.57
2018-05-08T18:24:26.346Z,2.50
2018-05-08T18:26:53.868Z,2.60
2018-05-08T18:29:21.356Z,2.67
2018-05-08T18:31:48.845Z,2.90
2018-05-08T18:34:16.376Z,2.27
2018-05-08T18:36:43.861Z,2.90
2018-05-08T18:39:11.352Z,2.80
2018-05-08T18:41:38.816Z,2.13
2018-05-08T18:44:06.353Z,2.77
2018-05-08T18:46:33.766Z,2.90
2018-05-08T18:49:01.268Z,3.00
2018-05-08T18:51:29.503Z,3.47
2018-05-08T18:53:56.961Z,3.60
2018-05-08T18:56:24.497Z,2.80
2018-05-08T18:58:52.010Z,3.00
2018-05-08T19:01:20.256Z,2.90
2018-05-08T19:03:47.737Z,3.00
2018-05-08T19:06:15.202Z,2.87
2018-05-08T19:08:43.446Z,3.30
2018-05-08T19:11:16.605Z,2.83
2018-05-08T19:13:44.048Z,2.80
2018-05-08T19:16:11.546Z,2.80
2018-05-08T19:18:44.556Z,3.10
2018-05-08T19:21:12.052Z,2.90
2018-05-08T19:23:39.542Z,2.97
2018-05-08T19:26:07.046Z,2.80
2018-05-08T19:28:40.862Z,2.80
2018-05-08T19:31:09.153Z,2.93
2018-05-08T19:33:36.634Z,2.20
2018-05-08T19:36:09.859Z,3.20
2018-05-08T19:38:37.314Z,2.83
2018-05-08T19:41:04.837Z,3.00
2018-05-08T19:43:32.308Z,3.33
2018-05-08T19:45:59.790Z,2.80
2018-05-08T19:48:27.307Z,2.93
2018-05-08T19:50:54.825Z,2.80
2018-05-08T19:53:22.331Z,2.80
2018-05-08T19:55:49.822Z,2.67
2018-05-08T19:58:17.513Z,2.60
2018-05-08T20:00:47.107Z,2.40
2018-05-08T20:03:15.039Z,2.70
2018-05-08T20:05:42.578Z,2.43
2018-05-08T20:08:10.049Z,2.60
2018-05-08T20:10:37.547Z,2.57
2018-05-08T20:13:05.042Z,2.43
2018-05-08T20:15:32.542Z,2.77
2018-05-08T20:18:00.437Z,2.67
2018-05-08T20:20:29.690Z,3.20
2018-05-08T20:22:57.313Z,2.63
2018-05-08T20:25:24.821Z,3.17
2018-05-08T20:27:54.540Z,3.20
2018-05-08T20:30:23.556Z,3.60
2018-05-08T20:32:51.794Z,3.20
2018-05-08T20:35:19.276Z,3.13
2018-05-08T20:37:47.626Z,3.37
2018-05-08T20:40:15.088Z,2.90
2018-05-08T20:42:43.895Z,3.60
2018-05-08T20:45:11.381Z,3.37
2018-05-08T20:47:38.874Z,3.27
2018-05-08T20:50:06.671Z,3.00
2018-05-08T20:52:34.582Z,3.00
2018-05-08T20:55:02.074Z,3.20
2018-05-08T20:57:29.601Z,3.00
2018-05-08T20:59:57.126Z,3.20
2018-05-08T21:02:26.187Z,3.30
2018-05-08T21:04:53.707Z,3.43
2018-05-08T21:07:21.309Z,3.20
2018-05-08T21:09:48.886Z,3.40
2018-05-08T21:12:16.427Z,3.15
2018-05-08T21:14:45.971Z,3.10
2018-05-08T21:17:13.492Z,3.70
2018-05-08T21:19:41.091Z,3.10
2018-05-08T21:22:09.121Z,3.60
2018-05-08T21:24:38.610Z,3.45
2018-05-08T21:27:06.975Z,3.92
2018-05-08T21:29:42.388Z,3.25
2018-05-08T21:32:14.391Z,3.33
2018-05-08T21:34:41.911Z,3.15
2018-05-08T21:37:11.796Z,4.15
2018-05-08T21:39:40.175Z,3.70
2018-05-08T21:42:08.583Z,3.35
2018-05-08T21:44:37.159Z,3.10
2018-05-08T21:47:04.782Z,3.80
2018-05-08T21:49:32.323Z,3.42
2018-05-08T21:51:59.972Z,3.90
2018-05-08T21:54:27.654Z,3.28
2018-05-08T21:56:55.708Z,3.00
2018-05-08T21:59:23.235Z,3.47
2018-05-08T22:01:50.833Z,4.55
2018-05-08T22:04:18.398Z,4.70
2018-05-08T22:06:45.883Z,4.20
2018-05-08T22:09:13.399Z,4.15
2018-05-08T22:11:40.888Z,4.57
2018-05-08T22:14:09.115Z,4.20
2018-05-08T22:16:36.608Z,4.15
2018-05-08T22:19:04.905Z,4.37
2018-05-08T22:21:32.563Z,3.67
2018-05-08T22:24:00.214Z,3.60
2018-05-08T22:26:28.184Z,3.45
2018-05-08T22:28:55.769Z,3.70
2018-05-08T22:31:24.110Z,3.20
2018-05-08T22:33:58.191Z,3.20
2018-05-08T22:36:25.696Z,3.05
2018-05-08T22:38:53.462Z,2.92
2018-05-08T22:41:20.993Z,3.47
2018-05-08T22:43:48.510Z,3.67
2018-05-08T22:46:15.982Z,3.30
2018-05-08T22:48:43.484Z,4.00
2018-05-08T22:51:10.986Z,3.12
2018-05-08T22:53:39.320Z,2.90
2018-05-08T22:56:06.819Z,3.40
2018-05-08T22:58:35.223Z,3.15
2018-05-08T23:01:02.816Z,3.15
2018-05-08T23:03:30.347Z,3.03
2018-05-08T23:05:58.005Z,3.72
2018-05-08T23:08:26.080Z,3.78
2018-05-08T23:10:53.707Z,3.85
2018-05-08T23:13:21.227Z,2.97
2018-05-08T23:15:48.800Z,3.40
2018-05-08T23:18:16.303Z,4.20
2018-05-08T23:20:44.664Z,3.58
2018-05-08T23:23:12.934Z,3.03
2018-05-08T23:25:40.401Z,2.97
2018-05-08T23:28:07.857Z,4.07
2018-05-08T23:30:36.084Z,3.20
2018-05-08T23:33:03.544Z,3.58
2018-05-08T23:35:31.071Z,3.25
2018-05-08T23:37:58.650Z,3.58
2018-05-08T23:40:26.134Z,3.50
2018-05-08T23:42:53.594Z,3.62
2018-05-08T23:45:21.115Z,3.28
2018-05-08T23:47:48.619Z,3.12
2018-05-08T23:50:16.089Z,3.00
2018-05-08T23:52:43.592Z,2.85
2018-05-08T23:55:11.097Z,3.97
2018-05-08T23:57:38.562Z,3.03
